sensor_id;sensor_type;location;lat;lon;timestamp;pressure;altitude;pressure_sealevel;temperature
71163;BMP280;58858;50.948;6.566;2022-09-20T00:05:21;101344.00;;;9.89
71163;BMP280;58858;50.948;6.566;2022-09-20T00:15:22;101328.84;;;9.88
71163;BMP280;58858;50.948;6.566;2022-09-20T00:25:23;101334.81;;;9.99
71163;BMP280;58858;50.948;6.566;2022-09-20T00:35:24;101326.63;;;9.87
71163;BMP280;58858;50.948;6.566;2022-09-20T00:45:27;101307.34;;;9.79
71163;BMP280;58858;50.948;6.566;2022-09-20T00:55:28;101325.91;;;9.86
71163;BMP280;58858;50.948;6.566;2022-09-20T01:05:30;101313.25;;;9.83
71163;BMP280;58858;50.948;6.566;2022-09-20T01:15:33;101317.34;;;9.90
71163;BMP280;58858;50.948;6.566;2022-09-20T01:26:01;101311.66;;;10.00
71163;BMP280;58858;50.948;6.566;2022-09-20T01:36:10;101303.25;;;9.86
71163;BMP280;58858;50.948;6.566;2022-09-20T01:46:17;101322.00;;;9.94
71163;BMP280;58858;50.948;6.566;2022-09-20T02:48:48;101277.09;;;9.97
71163;BMP280;58858;50.948;6.566;2022-09-20T02:58:59;101270.16;;;9.96
71163;BMP280;58858;50.948;6.566;2022-09-20T03:30:00;101291.66;;;9.80
71163;BMP280;58858;50.948;6.566;2022-09-20T04:11:09;101310.84;;;9.67
71163;BMP280;58858;50.948;6.566;2022-09-20T04:21:21;101308.28;;;9.56
71163;BMP280;58858;50.948;6.566;2022-09-20T04:31:38;101321.91;;;9.49
71163;BMP280;58858;50.948;6.566;2022-09-20T05:03:03;101330.63;;;9.35
71163;BMP280;58858;50.948;6.566;2022-09-20T05:13:54;101335.88;;;9.33
71163;BMP280;58858;50.948;6.566;2022-09-20T05:24:32;101344.56;;;9.19
71163;BMP280;58858;50.948;6.566;2022-09-20T05:34:55;101367.84;;;9.25
71163;BMP280;58858;50.948;6.566;2022-09-20T05:45:19;101369.00;;;9.30
71163;BMP280;58858;50.948;6.566;2022-09-20T05:55:47;101363.22;;;9.46
71163;BMP280;58858;50.948;6.566;2022-09-20T06:16:08;101383.34;;;9.36
71163;BMP280;58858;50.948;6.566;2022-09-20T06:26:18;101387.75;;;9.51
71163;BMP280;58858;50.948;6.566;2022-09-20T06:36:33;101376.00;;;9.81
71163;BMP280;58858;50.948;6.566;2022-09-20T06:46:53;101380.28;;;10.28
71163;BMP280;58858;50.948;6.566;2022-09-20T06:56:54;101380.03;;;10.38
71163;BMP280;58858;50.948;6.566;2022-09-20T07:07:03;101372.69;;;11.73
71163;BMP280;58858;50.948;6.566;2022-09-20T07:17:04;101349.69;;;11.91
71163;BMP280;58858;50.948;6.566;2022-09-20T07:27:06;101341.81;;;13.08
71163;BMP280;58858;50.948;6.566;2022-09-20T07:37:07;101326.06;;;13.08
71163;BMP280;58858;50.948;6.566;2022-09-20T07:47:09;101342.66;;;12.66
71163;BMP280;58858;50.948;6.566;2022-09-20T07:57:11;101336.81;;;13.57
71163;BMP280;58858;50.948;6.566;2022-09-20T08:07:12;101317.09;;;13.90
71163;BMP280;58858;50.948;6.566;2022-09-20T08:17:12;101323.31;;;13.98
71163;BMP280;58858;50.948;6.566;2022-09-20T08:27:14;101360.34;;;15.12
71163;BMP280;58858;50.948;6.566;2022-09-20T08:37:15;101342.84;;;14.93
71163;BMP280;58858;50.948;6.566;2022-09-20T08:47:26;101364.66;;;15.46
71163;BMP280;58858;50.948;6.566;2022-09-20T08:57:30;101421.03;;;14.88
71163;BMP280;58858;50.948;6.566;2022-09-20T09:07:32;101393.75;;;14.99
71163;BMP280;58858;50.948;6.566;2022-09-20T09:17:33;101387.63;;;15.49
71163;BMP280;58858;50.948;6.566;2022-09-20T09:27:58;101400.16;;;15.02
71163;BMP280;58858;50.948;6.566;2022-09-20T09:38:00;101447.06;;;14.25
71163;BMP280;58858;50.948;6.566;2022-09-20T09:48:17;101441.13;;;15.36
71163;BMP280;58858;50.948;6.566;2022-09-20T09:58:47;101391.16;;;15.25
71163;BMP280;58858;50.948;6.566;2022-09-20T10:50:36;101500.22;;;13.96
71163;BMP280;58858;50.948;6.566;2022-09-20T11:10:54;101535.81;;;13.58
71163;BMP280;58858;50.948;6.566;2022-09-20T11:21:13;101592.75;;;12.99
71163;BMP280;58858;50.948;6.566;2022-09-20T11:31:24;101634.34;;;11.61
71163;BMP280;58858;50.948;6.566;2022-09-20T11:41:31;101604.94;;;11.49
71163;BMP280;58858;50.948;6.566;2022-09-20T11:51:48;101585.28;;;11.45
71163;BMP280;58858;50.948;6.566;2022-09-20T12:02:00;101548.47;;;11.41
71163;BMP280;58858;50.948;6.566;2022-09-20T12:22:30;101497.91;;;11.76
71163;BMP280;58858;50.948;6.566;2022-09-20T12:42:38;101533.94;;;12.40
71163;BMP280;58858;50.948;6.566;2022-09-20T13:13:34;101562.25;;;12.55
71163;BMP280;58858;50.948;6.566;2022-09-20T13:23:47;101524.19;;;13.15
71163;BMP280;58858;50.948;6.566;2022-09-20T13:33:48;101483.31;;;13.63
71163;BMP280;58858;50.948;6.566;2022-09-20T13:43:49;101451.78;;;14.39
71163;BMP280;58858;50.948;6.566;2022-09-20T13:53:51;101378.16;;;14.56
71163;BMP280;58858;50.948;6.566;2022-09-20T14:03:53;101432.38;;;14.15
71163;BMP280;58858;50.948;6.566;2022-09-20T14:13:56;101442.47;;;14.27
71163;BMP280;58858;50.948;6.566;2022-09-20T14:24:05;101420.03;;;14.31
71163;BMP280;58858;50.948;6.566;2022-09-20T14:34:11;101427.56;;;14.30
71163;BMP280;58858;50.948;6.566;2022-09-20T14:44:20;101347.09;;;14.17
71163;BMP280;58858;50.948;6.566;2022-09-20T14:54:28;101329.50;;;14.44
71163;BMP280;58858;50.948;6.566;2022-09-20T15:04:34;101296.06;;;14.09
71163;BMP280;58858;50.948;6.566;2022-09-20T15:14:37;101224.44;;;14.33
71163;BMP280;58858;50.948;6.566;2022-09-20T15:24:40;101222.56;;;14.35
71163;BMP280;58858;50.948;6.566;2022-09-20T15:34:41;101399.16;;;14.52
71163;BMP280;58858;50.948;6.566;2022-09-20T15:44:42;101341.31;;;13.99
71163;BMP280;58858;50.948;6.566;2022-09-20T15:54:43;101392.19;;;13.83
71163;BMP280;58858;50.948;6.566;2022-09-20T16:04:46;101432.78;;;13.97
71163;BMP280;58858;50.948;6.566;2022-09-20T16:14:47;101427.84;;;13.88
71163;BMP280;58858;50.948;6.566;2022-09-20T16:24:48;101469.72;;;13.36
71163;BMP280;58858;50.948;6.566;2022-09-20T16:34:49;101457.69;;;12.90
71163;BMP280;58858;50.948;6.566;2022-09-20T16:44:54;101518.22;;;12.48
71163;BMP280;58858;50.948;6.566;2022-09-20T16:54:55;101533.13;;;12.32
71163;BMP280;58858;50.948;6.566;2022-09-20T17:04:56;101580.88;;;12.49
71163;BMP280;58858;50.948;6.566;2022-09-20T17:14:58;101585.22;;;12.37
71163;BMP280;58858;50.948;6.566;2022-09-20T17:24:59;101576.75;;;12.28
71163;BMP280;58858;50.948;6.566;2022-09-20T17:35:00;101602.41;;;12.11
71163;BMP280;58858;50.948;6.566;2022-09-20T17:45:04;101596.91;;;11.71
71163;BMP280;58858;50.948;6.566;2022-09-20T17:55:06;101604.81;;;11.54
71163;BMP280;58858;50.948;6.566;2022-09-20T18:05:07;101598.00;;;11.23
71163;BMP280;58858;50.948;6.566;2022-09-20T18:15:09;101594.69;;;10.91
71163;BMP280;58858;50.948;6.566;2022-09-20T18:25:10;101613.06;;;10.71
71163;BMP280;58858;50.948;6.566;2022-09-20T18:35:11;101635.84;;;10.66
71163;BMP280;58858;50.948;6.566;2022-09-20T18:45:12;101622.13;;;10.53
71163;BMP280;58858;50.948;6.566;2022-09-20T18:55:13;101624.00;;;10.33
71163;BMP280;58858;50.948;6.566;2022-09-20T19:05:25;101640.94;;;10.31
71163;BMP280;58858;50.948;6.566;2022-09-20T19:25:40;101647.03;;;10.12
71163;BMP280;58858;50.948;6.566;2022-09-20T19:35:47;101640.63;;;9.92
71163;BMP280;58858;50.948;6.566;2022-09-20T20:06:33;101656.34;;;9.73
71163;BMP280;58858;50.948;6.566;2022-09-20T20:26:57;101659.31;;;9.39
71163;BMP280;58858;50.948;6.566;2022-09-20T20:36:58;101647.75;;;9.10
71163;BMP280;58858;50.948;6.566;2022-09-20T20:47:03;101673.56;;;9.14
71163;BMP280;58858;50.948;6.566;2022-09-20T20:57:07;101688.09;;;9.04
71163;BMP280;58858;50.948;6.566;2022-09-20T21:07:08;101684.06;;;8.87
71163;BMP280;58858;50.948;6.566;2022-09-20T21:17:10;101691.88;;;8.78
71163;BMP280;58858;50.948;6.566;2022-09-20T21:27:11;101698.25;;;8.62
71163;BMP280;58858;50.948;6.566;2022-09-20T21:37:12;101707.75;;;8.50
71163;BMP280;58858;50.948;6.566;2022-09-20T21:47:13;101697.78;;;8.29
71163;BMP280;58858;50.948;6.566;2022-09-20T21:57:19;101687.41;;;8.23
71163;BMP280;58858;50.948;6.566;2022-09-20T22:07:21;101674.88;;;8.04
71163;BMP280;58858;50.948;6.566;2022-09-20T22:17:22;101706.25;;;7.92
71163;BMP280;58858;50.948;6.566;2022-09-20T22:27:23;101718.94;;;7.89
71163;BMP280;58858;50.948;6.566;2022-09-20T22:37:24;101700.38;;;7.77
71163;BMP280;58858;50.948;6.566;2022-09-20T22:47:25;101715.97;;;7.88
71163;BMP280;58858;50.948;6.566;2022-09-20T22:57:26;101706.34;;;7.81
71163;BMP280;58858;50.948;6.566;2022-09-20T23:07:27;101719.47;;;7.83
71163;BMP280;58858;50.948;6.566;2022-09-20T23:17:28;101722.75;;;7.70
71163;BMP280;58858;50.948;6.566;2022-09-20T23:27:29;101718.38;;;7.57
71163;BMP280;58858;50.948;6.566;2022-09-20T23:37:30;101704.50;;;7.55
71163;BMP280;58858;50.948;6.566;2022-09-20T23:47:31;101678.28;;;7.41
71163;BMP280;58858;50.948;6.566;2022-09-20T23:57:32;101691.22;;;7.35
